Aviation Digital Data Service (ADDS)

Output produced by METARs form (1248 UTC 18 August 2017)
found at http://aviationweather.gov/adds/metars/
 
KCLT 181125Z 1812/1912 22004KT P6SM FEW250 
     FM181700 23008KT P6SM SCT040 SCT250 
     FM182100 23008KT P6SM BKN060 
     PROB30 1821/1902 4SM -TSRA OVC025CB 
     FM190200 29004KT P6SM SCT050